TAP7X LPPT-LPFR
Flight info
| Callsign | TAP7X |
|---|---|
| Flight time | 0h 30m |
| Altitude | 19000 |
| Route | DUZOP DCT ODEMI |
| Aircraft | A20N/M-SDE2E3FGHIRWXY/LB1 |
Departure
| Time | 2026-05-04 13:54 |
|---|---|
| Airport | Lisbon Humberto Delgado Airport (LPPT) |
Arrival
| Time | 2026-05-04 14:24 |
|---|---|
| Airport | Faro - Gago Coutinho International Airport (LPFR) |
| Time | Latitude | Longitude | Altitude | Speed | Heading |
|---|---|---|---|---|---|
| 2026-05-04 13:32 | 38.76717 | -9.13963 | 338 ft | 0 kts | 79° |
| 2026-05-04 13:45 | 38.76713 | -9.13989 | 338 ft | 3 kts | 79° |
| 2026-05-04 13:45 | 38.76708 | -9.14022 | 338 ft | 3 kts | 79° |
| 2026-05-04 13:45 | 38.76695 | -9.14048 | 338 ft | 3 kts | 28° |
| 2026-05-04 13:46 | 38.76675 | -9.14051 | 339 ft | 0 kts | 347° |
| 2026-05-04 13:49 | 38.76676 | -9.14051 | 339 ft | 1 kts | 347° |
| 2026-05-04 13:49 | 38.76728 | -9.14067 | 338 ft | 9 kts | 332° |
| 2026-05-04 13:49 | 38.76722 | -9.14120 | 338 ft | 8 kts | 206° |
| 2026-05-04 13:49 | 38.76665 | -9.14145 | 338 ft | 10 kts | 200° |
| 2026-05-04 13:50 | 38.76593 | -9.14201 | 337 ft | 13 kts | 246° |
| 2026-05-04 13:50 | 38.76598 | -9.14257 | 337 ft | 0 kts | 290° |
| 2026-05-04 13:50 | 38.76599 | -9.14257 | 337 ft | 0 kts | 291° |
| 2026-05-04 13:50 | 38.76599 | -9.14259 | 337 ft | 0 kts | 295° |
| 2026-05-04 13:52 | 38.76617 | -9.14308 | 338 ft | 6 kts | 295° |
| 2026-05-04 13:52 | 38.76644 | -9.14358 | 339 ft | 6 kts | 325° |
| 2026-05-04 13:52 | 38.76687 | -9.14363 | 340 ft | 6 kts | 15° |
| 2026-05-04 13:53 | 38.76795 | -9.14310 | 341 ft | 45 kts | 23° |
| 2026-05-04 13:53 | 38.77313 | -9.14037 | 352 ft | 112 kts | 23° |
| 2026-05-04 13:53 | 38.78193 | -9.13545 | 388 ft | 161 kts | 21° |
| 2026-05-04 13:54 | 38.80248 | -9.12238 | 1565 ft | 165 kts | 26° |
| 2026-05-04 13:54 | 38.81210 | -9.11523 | 2277 ft | 161 kts | 25° |
| 2026-05-04 13:54 | 38.83354 | -9.10024 | 3150 ft | 194 kts | 25° |
| 2026-05-04 13:55 | 38.84614 | -9.09180 | 3532 ft | 217 kts | 25° |
| 2026-05-04 13:55 | 38.87455 | -9.07074 | 4552 ft | 258 kts | 44° |
| 2026-05-04 13:55 | 38.88288 | -9.05009 | 5203 ft | 276 kts | 79° |
| 2026-05-04 13:56 | 38.88079 | -9.02580 | 6087 ft | 282 kts | 113° |
| 2026-05-04 13:56 | 38.86857 | -9.00632 | 6966 ft | 286 kts | 147° |
| 2026-05-04 13:56 | 38.83062 | -8.99171 | 8638 ft | 293 kts | 169° |
| 2026-05-04 13:57 | 38.81090 | -8.98652 | 9459 ft | 296 kts | 169° |
| 2026-05-04 13:57 | 38.79071 | -8.98101 | 10282 ft | 300 kts | 169° |
| 2026-05-04 13:58 | 38.72565 | -8.95987 | 11596 ft | 351 kts | 155° |
| 2026-05-04 13:58 | 38.68276 | -8.92353 | 12268 ft | 387 kts | 146° |
| 2026-05-04 13:58 | 38.66071 | -8.90354 | 12797 ft | 396 kts | 147° |
| 2026-05-04 13:59 | 38.63787 | -8.88336 | 13463 ft | 400 kts | 147° |
| 2026-05-04 13:59 | 38.61458 | -8.86322 | 14125 ft | 405 kts | 148° |
| 2026-05-04 13:59 | 38.56747 | -8.82334 | 15473 ft | 412 kts | 149° |
| 2026-05-04 14:00 | 38.54363 | -8.80336 | 16136 ft | 416 kts | 149° |
| 2026-05-04 14:00 | 38.49459 | -8.76245 | 17368 ft | 423 kts | 149° |
| 2026-05-04 14:00 | 38.46993 | -8.74193 | 17952 ft | 427 kts | 149° |
| 2026-05-04 14:01 | 38.44504 | -8.72126 | 18542 ft | 430 kts | 149° |
| 2026-05-04 14:01 | 38.41981 | -8.70033 | 18953 ft | 434 kts | 150° |
| 2026-05-04 14:01 | 38.36926 | -8.65846 | 19042 ft | 435 kts | 150° |
| 2026-05-04 14:02 | 38.34402 | -8.63758 | 19048 ft | 434 kts | 149° |
| 2026-05-04 14:02 | 38.31855 | -8.61651 | 19061 ft | 435 kts | 149° |
| 2026-05-04 14:02 | 38.29302 | -8.59540 | 19045 ft | 435 kts | 150° |
| 2026-05-04 14:02 | 38.26785 | -8.57462 | 19054 ft | 435 kts | 150° |
| 2026-05-04 14:03 | 38.24256 | -8.55377 | 19039 ft | 434 kts | 150° |
| 2026-05-04 14:03 | 38.21717 | -8.53285 | 19042 ft | 434 kts | 150° |
| 2026-05-04 14:03 | 38.19174 | -8.51191 | 19045 ft | 434 kts | 150° |
| 2026-05-04 14:03 | 38.16623 | -8.49093 | 19042 ft | 435 kts | 150° |
| 2026-05-04 14:04 | 38.11564 | -8.44933 | 19049 ft | 434 kts | 150° |
| 2026-05-04 14:04 | 38.09044 | -8.42866 | 19039 ft | 434 kts | 150° |
| 2026-05-04 14:04 | 38.06479 | -8.40764 | 19045 ft | 435 kts | 150° |
| 2026-05-04 14:05 | 38.01408 | -8.36617 | 19051 ft | 435 kts | 150° |
| 2026-05-04 14:05 | 37.98875 | -8.34544 | 19042 ft | 435 kts | 150° |
| 2026-05-04 14:05 | 37.96315 | -8.32452 | 18879 ft | 434 kts | 150° |
| 2026-05-04 14:06 | 37.93801 | -8.30397 | 18629 ft | 432 kts | 150° |
| 2026-05-04 14:06 | 37.91274 | -8.28335 | 18380 ft | 430 kts | 150° |
| 2026-05-04 14:06 | 37.88793 | -8.26311 | 18129 ft | 428 kts | 150° |
| 2026-05-04 14:06 | 37.86283 | -8.24267 | 17869 ft | 426 kts | 150° |
| 2026-05-04 14:07 | 37.83799 | -8.22246 | 17614 ft | 424 kts | 150° |
| 2026-05-04 14:07 | 37.81344 | -8.20248 | 17380 ft | 422 kts | 150° |
| 2026-05-04 14:07 | 37.78851 | -8.18223 | 17133 ft | 421 kts | 150° |
| 2026-05-04 14:07 | 37.76391 | -8.16223 | 16868 ft | 419 kts | 150° |
| 2026-05-04 14:08 | 37.73947 | -8.14240 | 16622 ft | 418 kts | 150° |
| 2026-05-04 14:08 | 37.71513 | -8.12266 | 16357 ft | 416 kts | 150° |
| 2026-05-04 14:08 | 37.69084 | -8.10299 | 16028 ft | 414 kts | 150° |
| 2026-05-04 14:08 | 37.66657 | -8.08335 | 15653 ft | 412 kts | 150° |
| 2026-05-04 14:09 | 37.61901 | -8.04488 | 14669 ft | 405 kts | 150° |
| 2026-05-04 14:09 | 37.59525 | -8.02571 | 14150 ft | 402 kts | 150° |
| 2026-05-04 14:10 | 37.54880 | -7.98824 | 13107 ft | 396 kts | 150° |
| 2026-05-04 14:10 | 37.52556 | -7.96952 | 12581 ft | 393 kts | 150° |
| 2026-05-04 14:10 | 37.50256 | -7.95099 | 12047 ft | 391 kts | 150° |
| 2026-05-04 14:10 | 37.47978 | -7.93267 | 11530 ft | 387 kts | 149° |
| 2026-05-04 14:11 | 37.45746 | -7.91471 | 11144 ft | 379 kts | 149° |
| 2026-05-04 14:11 | 37.41458 | -7.88021 | 10730 ft | 354 kts | 149° |
| 2026-05-04 14:11 | 37.39394 | -7.86361 | 10556 ft | 342 kts | 150° |
| 2026-05-04 14:12 | 37.37439 | -7.84792 | 10399 ft | 330 kts | 150° |
| 2026-05-04 14:12 | 37.35542 | -7.83270 | 10254 ft | 318 kts | 150° |
| 2026-05-04 14:12 | 37.31943 | -7.80387 | 9929 ft | 299 kts | 150° |
| 2026-05-04 14:13 | 37.30177 | -7.78976 | 9570 ft | 297 kts | 150° |
| 2026-05-04 14:13 | 37.28454 | -7.77602 | 9215 ft | 295 kts | 150° |
| 2026-05-04 14:13 | 37.26734 | -7.76229 | 8866 ft | 286 kts | 149° |
| 2026-05-04 14:13 | 37.25099 | -7.74923 | 8531 ft | 274 kts | 149° |
| 2026-05-04 14:14 | 37.23500 | -7.73646 | 8205 ft | 271 kts | 149° |
| 2026-05-04 14:14 | 37.20353 | -7.71138 | 7564 ft | 267 kts | 148° |
| 2026-05-04 14:14 | 37.18777 | -7.69882 | 7243 ft | 265 kts | 148° |
| 2026-05-04 14:15 | 37.15677 | -7.67413 | 6614 ft | 262 kts | 147° |
| 2026-05-04 14:15 | 37.12628 | -7.64985 | 5995 ft | 260 kts | 147° |
| 2026-05-04 14:16 | 37.09607 | -7.62595 | 5402 ft | 252 kts | 151° |
| 2026-05-04 14:16 | 37.07953 | -7.61975 | 5064 ft | 249 kts | 182° |
| 2026-05-04 14:17 | 37.04785 | -7.63268 | 4513 ft | 239 kts | 208° |
| 2026-05-04 14:17 | 37.03283 | -7.64155 | 4237 ft | 237 kts | 208° |
| 2026-05-04 14:17 | 37.00358 | -7.65819 | 3955 ft | 219 kts | 207° |
| 2026-05-04 14:18 | 36.98992 | -7.66578 | 3956 ft | 215 kts | 209° |
| 2026-05-04 14:18 | 36.97525 | -7.69177 | 3972 ft | 169 kts | 274° |
| 2026-05-04 14:19 | 36.97879 | -7.71812 | 3737 ft | 147 kts | 286° |
| 2026-05-04 14:19 | 36.98100 | -7.73050 | 3548 ft | 146 kts | 285° |
| 2026-05-04 14:19 | 36.98306 | -7.74294 | 3350 ft | 145 kts | 284° |
| 2026-05-04 14:19 | 36.98492 | -7.75519 | 3164 ft | 145 kts | 283° |
| 2026-05-04 14:20 | 36.98672 | -7.76753 | 2974 ft | 144 kts | 283° |
| 2026-05-04 14:20 | 36.98844 | -7.77988 | 2786 ft | 143 kts | 283° |
| 2026-05-04 14:20 | 36.99013 | -7.79211 | 2594 ft | 142 kts | 282° |
| 2026-05-04 14:21 | 36.99348 | -7.81648 | 2221 ft | 141 kts | 282° |
| 2026-05-04 14:21 | 36.99514 | -7.82859 | 2035 ft | 141 kts | 281° |
| 2026-05-04 14:21 | 36.99680 | -7.84050 | 1878 ft | 139 kts | 282° |
| 2026-05-04 14:21 | 36.99847 | -7.85245 | 1687 ft | 139 kts | 281° |
| 2026-05-04 14:22 | 37.00014 | -7.86440 | 1498 ft | 138 kts | 281° |
| 2026-05-04 14:22 | 37.00173 | -7.87575 | 1312 ft | 130 kts | 280° |
| 2026-05-04 14:22 | 37.00328 | -7.88673 | 1135 ft | 127 kts | 280° |
| 2026-05-04 14:22 | 37.00481 | -7.89753 | 976 ft | 126 kts | 279° |
| 2026-05-04 14:23 | 37.00787 | -7.91913 | 661 ft | 125 kts | 278° |
| 2026-05-04 14:23 | 37.00937 | -7.92972 | 498 ft | 125 kts | 277° |
| 2026-05-04 14:23 | 37.01090 | -7.94049 | 334 ft | 124 kts | 277° |
| 2026-05-04 14:24 | 37.01240 | -7.95107 | 172 ft | 124 kts | 276° |
| 2026-05-04 14:24 | 37.01389 | -7.96169 | 31 ft | 122 kts | 276° |
| 2026-05-04 14:24 | 37.01508 | -7.97072 | 19 ft | 81 kts | 278° |
| 2026-05-04 14:24 | 37.01585 | -7.97601 | 20 ft | 47 kts | 281° |
| 2026-05-04 14:25 | 37.01649 | -7.97853 | 22 ft | 18 kts | 343° |
| 2026-05-04 14:25 | 37.01730 | -7.97795 | 24 ft | 0 kts | 61° |
| 2026-05-04 14:26 | 37.01749 | -7.97749 | 25 ft | 12 kts | 65° |
| 2026-05-04 14:26 | 37.01768 | -7.97599 | 25 ft | 22 kts | 95° |
| 2026-05-04 14:27 | 37.01744 | -7.97410 | 24 ft | 21 kts | 101° |
| 2026-05-04 14:27 | 37.01716 | -7.97229 | 23 ft | 21 kts | 100° |
| 2026-05-04 14:27 | 37.01689 | -7.97046 | 22 ft | 21 kts | 100° |
| 2026-05-04 14:27 | 37.01709 | -7.96910 | 23 ft | 13 kts | 15° |
| 2026-05-04 14:28 | 37.01798 | -7.96887 | 25 ft | 12 kts | 21° |
| 2026-05-04 14:28 | 37.01872 | -7.96858 | 25 ft | 11 kts | 10° |
| 2026-05-04 14:28 | 37.01908 | -7.96849 | 25 ft | 0 kts | 9° |
| 2026-05-04 14:28 | 37.01920 | -7.96847 | 25 ft | 1 kts | 9° |
| 2026-05-04 14:29 | 37.01923 | -7.96847 | 25 ft | 0 kts | 9° |